Time;durP1;ratioP1;P1;durP2;ratioP2;P2;SDS_P1;SDS_P2;PMS_P1;PMS_P2;Temp;Humidity;BMP_temperature;BMP_pressure;BME280_temperature;BME280_humidity;BME280_pressure;Samples;Min_cycle;Max_cycle;Signal;HPM_P1;HPM_P2
2021/08/24 00:00:20;;;;;;;6.35;3.20;;;;;;;14.71;84.99;101225.00;6290319;22;20079;-80
2021/08/24 00:02:47;;;;;;;4.90;3.05;;;;;;;14.67;84.72;101216.28;6294777;22;20015;-82
2021/08/24 00:05:20;;;;;;;3.47;2.95;;;;;;;14.61;85.03;101215.75;6292152;22;20472;-80
2021/08/24 00:07:47;;;;;;;4.90;3.25;;;;;;;14.59;84.87;101213.16;6292122;22;20043;-81
2021/08/24 00:10:14;;;;;;;3.75;3.35;;;;;;;14.57;85.35;101220.38;6289370;22;20051;-81
2021/08/24 00:12:41;;;;;;;3.67;2.88;;;;;;;14.53;85.30;101217.94;6278016;22;20098;-80
2021/08/24 00:15:11;;;;;;;3.85;3.08;;;;;;;14.52;85.03;101226.88;6277330;22;20114;-82
2021/08/24 00:17:37;;;;;;;4.70;3.10;;;;;;;14.48;85.57;101220.00;6278987;22;20051;-80
2021/08/24 00:20:05;;;;;;;4.03;3.05;;;;;;;14.46;85.56;101225.38;6275660;22;20026;-81
2021/08/24 00:22:32;;;;;;;6.68;3.10;;;;;;;14.45;85.42;101229.00;6277825;22;20023;-81
2021/08/24 00:24:58;;;;;;;3.28;2.70;;;;;;;14.41;85.44;101226.53;6276000;22;20030;-81
2021/08/24 00:27:25;;;;;;;8.57;3.10;;;;;;;14.36;85.63;101230.25;6275291;22;20015;-81
2021/08/24 00:29:52;;;;;;;3.38;2.67;;;;;;;14.33;85.30;101230.41;6277748;22;20126;-81
2021/08/24 00:32:18;;;;;;;7.20;2.88;;;;;;;14.29;85.49;101231.53;6276165;22;20016;-80
2021/08/24 00:34:45;;;;;;;5.72;3.10;;;;;;;14.28;85.76;101228.94;6274263;22;20026;-81
2021/08/24 00:37:11;;;;;;;3.63;2.60;;;;;;;14.27;85.51;101232.53;6278065;22;20024;-82
2021/08/24 00:39:38;;;;;;;5.35;2.85;;;;;;;14.27;85.61;101241.38;6277487;22;20050;-81
2021/08/24 00:42:15;;;;;;;5.22;2.75;;;;;;;14.23;85.92;101239.78;6276562;22;20011;-81
2021/08/24 00:44:43;;;;;;;6.60;3.00;;;;;;;14.19;85.83;101237.34;6277634;22;20418;-82
2021/08/24 00:47:15;;;;;;;4.55;3.10;;;;;;;14.16;85.68;101241.06;6278269;22;20046;-81
2021/08/24 00:49:44;;;;;;;5.43;3.00;;;;;;;14.16;85.47;101246.38;6277341;22;20020;-81
2021/08/24 00:52:14;;;;;;;3.70;2.65;;;;;;;14.12;85.70;101244.78;6281081;22;20019;-80
2021/08/24 00:54:43;;;;;;;5.18;2.63;;;;;;;14.09;85.92;101242.28;6279255;22;20067;-81
2021/08/24 00:57:20;;;;;;;3.72;2.67;;;;;;;14.05;86.13;101244.22;6290628;22;20019;-82
2021/08/24 00:59:50;;;;;;;4.20;2.85;;;;;;;14.01;86.08;101253.28;6295153;22;20054;-81
2021/08/24 01:02:21;;;;;;;6.55;3.00;;;;;;;13.99;86.57;101241.00;6300370;22;20050;-81
2021/08/24 01:04:50;;;;;;;4.38;2.90;;;;;;;13.98;86.29;101237.47;6299557;22;20046;-80
2021/08/24 01:07:22;;;;;;;4.15;2.65;;;;;;;13.98;85.87;101239.25;6300066;22;20030;-81
2021/08/24 01:09:52;;;;;;;4.43;2.63;;;;;;;13.94;86.17;101249.19;6280551;22;20059;-81
2021/08/24 01:12:39;;;;;;;4.40;2.40;;;;;;;13.88;86.23;101241.47;6279802;22;20019;-82
2021/08/24 01:15:42;;;;;;;3.42;2.70;;;;;;;13.86;86.49;101237.16;6295621;22;20026;-83
2021/08/24 01:18:25;;;;;;;4.57;2.83;;;;;;;13.84;86.63;101244.38;6263920;22;20004;-82
2021/08/24 01:21:18;;;;;;;5.07;2.90;;;;;;;13.80;86.58;101237.47;6299604;22;20026;-82
2021/08/24 01:24:05;;;;;;;3.90;2.65;;;;;;;13.77;86.50;101245.59;6300661;22;20035;-80
2021/08/24 01:26:41;;;;;;;2.97;2.50;;;;;;;13.70;87.08;101245.84;6301443;22;20063;-81
2021/08/24 01:29:19;;;;;;;7.88;2.70;;;;;;;13.70;86.76;101248.53;6302317;22;20027;-81
2021/08/24 01:32:12;;;;;;;4.03;2.75;;;;;;;13.69;86.57;101252.13;6290511;22;20160;-80
2021/08/24 01:34:51;;;;;;;4.88;2.50;;;;;;;13.66;86.66;101249.63;6278702;22;20012;-80
2021/08/24 01:38:02;;;;;;;4.53;3.00;;;;;;;13.64;87.02;101248.81;6279264;22;20016;-80
2021/08/24 01:40:44;;;;;;;11.05;2.90;;;;;;;13.61;87.06;101246.31;6184329;23;20024;-81
2021/08/24 01:43:14;;;;;;;4.97;2.70;;;;;;;13.61;86.81;101254.28;6290162;22;20022;-81
2021/08/24 01:45:46;;;;;;;5.13;2.60;;;;;;;13.59;86.53;101242.84;6276780;22;20443;-81
2021/08/24 01:48:36;;;;;;;5.90;2.83;;;;;;;13.60;86.56;101247.22;6277725;22;20024;-80
2021/08/24 01:51:17;;;;;;;4.00;2.50;;;;;;;13.57;86.88;101246.50;6276459;22;20090;-81
2021/08/24 01:53:51;;;;;;;4.35;2.97;;;;;;;13.60;86.31;101249.91;6276350;22;20019;-81
2021/08/24 01:56:31;;;;;;;3.65;2.50;;;;;;;13.61;86.19;101248.97;6278172;22;20099;-81
2021/08/24 01:59:05;;;;;;;5.85;2.42;;;;;;;13.52;85.75;101241.41;6277640;22;20026;-80
2021/08/24 02:01:39;;;;;;;3.58;2.55;;;;;;;13.54;85.65;101244.84;6276020;22;20067;-82
2021/08/24 02:04:13;;;;;;;4.57;2.72;;;;;;;13.52;85.90;101251.19;6279370;22;20055;-80
2021/08/24 02:06:46;;;;;;;4.80;2.70;;;;;;;13.51;85.64;101246.81;6278454;22;20026;-81
2021/08/24 02:09:26;;;;;;;4.40;2.47;;;;;;;13.53;85.57;101248.47;6279907;22;20023;-80
2021/08/24 02:11:53;;;;;;;6.53;2.72;;;;;;;13.51;85.93;101252.13;6280727;22;20020;-79
2021/08/24 02:14:22;;;;;;;5.15;2.45;;;;;;;13.47;85.37;101243.41;6283230;22;20020;-80
2021/08/24 02:16:50;;;;;;;4.28;2.28;;;;;;;13.45;85.57;101250.59;6286457;22;20047;-79
2021/08/24 02:19:24;;;;;;;3.38;2.50;;;;;;;13.45;86.05;101253.25;6284012;22;20071;-80
2021/08/24 02:22:03;;;;;;;4.78;2.40;;;;;;;13.41;86.45;101259.63;6287954;22;20034;-82
2021/08/24 02:24:39;;;;;;;5.05;2.45;;;;;;;13.40;86.36;101257.91;6281733;22;20094;-82
2021/08/24 02:27:10;;;;;;;3.63;2.50;;;;;;;13.36;86.02;101252.81;6277568;22;20059;-81
2021/08/24 02:29:36;;;;;;;4.40;2.40;;;;;;;13.34;86.34;101258.19;6278176;22;20016;-81
2021/08/24 02:32:10;;;;;;;4.03;2.10;;;;;;;13.29;86.41;101258.41;6279233;22;20081;-82
2021/08/24 02:35:03;;;;;;;4.43;2.38;;;;;;;13.27;86.37;101256.72;6278473;22;20340;-81
2021/08/24 02:37:39;;;;;;;7.75;2.38;;;;;;;13.25;86.39;101253.28;6276431;22;20500;-82
2021/08/24 02:40:41;;;;;;;6.22;2.25;;;;;;;13.22;86.05;101259.59;6278200;22;20030;-82
2021/08/24 02:43:27;;;;;;;6.00;2.53;;;;;;;13.13;86.07;101249.34;6263076;22;20022;-82
2021/08/24 02:46:01;;;;;;;4.05;2.22;;;;;;;13.18;86.81;101265.13;6279444;22;20026;-82
2021/08/24 02:48:31;;;;;;;4.00;2.55;;;;;;;13.16;86.41;101265.19;6277427;22;20016;-82
2021/08/24 02:50:59;;;;;;;4.00;2.50;;;;;;;13.14;86.44;101263.50;6277309;22;20019;-82
2021/08/24 02:53:25;;;;;;;5.15;2.20;;;;;;;13.13;86.21;101265.28;6279330;22;20063;-82
2021/08/24 02:55:52;;;;;;;4.03;2.22;;;;;;;13.10;86.06;101261.91;6279137;22;20019;-83
2021/08/24 02:58:19;;;;;;;3.08;1.95;;;;;;;13.08;86.01;101259.28;6279702;22;20055;-82
2021/08/24 03:00:48;;;;;;;5.82;2.22;;;;;;;13.05;85.92;101261.25;6292073;22;20039;-82
2021/08/24 03:03:16;;;;;;;5.90;2.45;;;;;;;12.99;86.18;101265.91;6298554;22;20019;-80
2021/08/24 03:05:44;;;;;;;5.40;2.40;;;;;;;13.02;86.13;101261.38;6300144;22;20068;-79
2021/08/24 03:08:12;;;;;;;5.22;2.38;;;;;;;13.00;86.10;101258.78;6296993;22;20075;-81
2021/08/24 03:10:43;;;;;;;3.20;2.15;;;;;;;12.99;86.17;101265.91;6278805;22;20019;-81
2021/08/24 03:13:29;;;;;;;7.70;2.47;;;;;;;12.97;86.63;101256.25;6279422;22;20325;-81
2021/08/24 03:16:06;;;;;;;6.38;2.47;;;;;;;12.95;86.06;101258.97;6279524;22;20485;-80
2021/08/24 03:19:03;;;;;;;5.53;2.15;;;;;;;12.96;86.43;101268.69;6277996;22;20077;-80
2021/08/24 03:21:36;;;;;;;8.82;2.20;;;;;;;12.91;86.58;101262.69;6279223;22;20049;-81
2021/08/24 03:24:09;;;;;;;3.25;2.15;;;;;;;12.91;86.15;101256.50;6279386;22;20406;-81
2021/08/24 03:26:38;;;;;;;5.68;2.38;;;;;;;12.80;86.28;101245.47;6279324;22;20038;-81
2021/08/24 03:29:09;;;;;;;3.17;2.47;;;;;;;12.81;86.52;101249.84;6281043;22;20012;-80
2021/08/24 03:31:38;;;;;;;3.88;2.25;;;;;;;12.80;86.97;101249.00;6280987;22;20026;-80
2021/08/24 03:34:06;;;;;;;4.13;2.47;;;;;;;12.81;86.69;101248.06;6280341;22;20046;-80
2021/08/24 03:36:37;;;;;;;3.75;2.40;;;;;;;12.79;86.55;101252.59;6280325;22;20856;-81
2021/08/24 03:39:04;;;;;;;3.30;2.33;;;;;;;12.79;86.81;101249.06;6279753;22;20044;-80
2021/08/24 03:41:30;;;;;;;3.83;2.30;;;;;;;12.79;86.22;101257.91;6277208;22;20095;-81
2021/08/24 03:43:58;;;;;;;4.22;2.45;;;;;;;12.82;86.44;101262.22;6277869;22;20024;-82
2021/08/24 03:46:26;;;;;;;3.15;2.33;;;;;;;12.77;85.76;101265.06;6279592;22;20016;-82
2021/08/24 03:48:52;;;;;;;7.70;2.33;;;;;;;12.78;86.31;101266.78;6275696;22;20043;-80
2021/08/24 03:51:19;;;;;;;4.82;2.60;;;;;;;12.78;86.41;101269.44;6277814;22;20671;-80
2021/08/24 03:53:48;;;;;;;5.15;2.63;;;;;;;12.79;85.38;101279.16;6278400;22;20106;-80
2021/08/24 03:56:15;;;;;;;5.18;2.47;;;;;;;12.77;85.75;101273.03;6279262;22;20026;-80
2021/08/24 03:58:42;;;;;;;4.78;2.40;;;;;;;12.75;85.52;101276.72;6277825;22;20020;-79
2021/08/24 04:01:16;;;;;;;4.05;2.63;;;;;;;12.73;85.11;101278.56;6281019;22;20035;-81
2021/08/24 04:03:44;;;;;;;4.28;2.20;;;;;;;12.73;84.97;101279.44;6287488;22;20378;-79
2021/08/24 04:06:10;;;;;;;4.32;2.40;;;;;;;12.73;85.01;101287.41;6286677;22;20205;-81
2021/08/24 04:08:38;;;;;;;4.65;2.47;;;;;;;12.71;85.92;101283.09;6281196;22;20034;-80
2021/08/24 04:11:08;;;;;;;3.03;2.03;;;;;;;12.70;85.89;101279.56;6282900;22;20016;-80
2021/08/24 04:13:36;;;;;;;4.47;2.58;;;;;;;12.68;85.98;101286.72;6292010;22;20026;-79
2021/08/24 04:16:05;;;;;;;5.82;2.42;;;;;;;12.67;86.21;101285.00;6292876;22;20079;-79
2021/08/24 04:18:32;;;;;;;3.10;2.10;;;;;;;12.68;86.30;101292.03;6290775;22;20015;-79
2021/08/24 04:21:00;;;;;;;4.05;2.53;;;;;;;12.65;86.33;101293.03;6292145;22;20034;-79
2021/08/24 04:23:27;;;;;;;4.75;2.25;;;;;;;12.65;86.14;101300.13;6288670;22;20049;-80
2021/08/24 04:25:54;;;;;;;6.93;2.85;;;;;;;12.61;85.74;101295.88;6287835;22;20127;-79
2021/08/24 04:28:20;;;;;;;4.45;2.25;;;;;;;12.59;86.17;101297.75;6286261;22;20098;-80
2021/08/24 04:30:48;;;;;;;4.10;2.35;;;;;;;12.56;86.78;101293.41;6279672;22;20020;-81
2021/08/24 04:33:21;;;;;;;6.85;3.22;;;;;;;12.58;87.05;101299.53;6282415;22;20496;-81
2021/08/24 04:35:53;;;;;;;3.30;2.05;;;;;;;12.57;86.69;101300.47;6279938;22;20026;-81
2021/08/24 04:38:21;;;;;;;5.53;2.13;;;;;;;12.55;86.38;101299.66;6281802;22;20034;-81
2021/08/24 04:40:48;;;;;;;3.92;2.63;;;;;;;12.54;86.50;101300.59;6284013;22;20382;-81
2021/08/24 04:43:17;;;;;;;4.47;2.22;;;;;;;12.55;86.72;101304.09;6282250;22;20111;-80
2021/08/24 04:45:44;;;;;;;5.38;2.65;;;;;;;12.54;87.00;101299.72;6284741;22;20049;-81
2021/08/24 04:48:11;;;;;;;3.50;2.25;;;;;;;12.55;86.84;101298.78;6288760;22;20075;-81
2021/08/24 04:50:38;;;;;;;6.05;2.38;;;;;;;12.57;86.65;101302.25;6288228;22;20083;-79
2021/08/24 04:53:05;;;;;;;4.47;2.13;;;;;;;12.53;86.12;101298.84;6292117;22;20043;-80
2021/08/24 04:55:32;;;;;;;3.50;2.08;;;;;;;12.57;85.95;101310.22;6285411;22;20079;-79
2021/08/24 04:58:02;;;;;;;4.28;2.60;;;;;;;12.57;86.37;101313.75;6293443;22;20053;-79
2021/08/24 05:00:31;;;;;;;3.22;2.28;;;;;;;12.61;84.90;101319.78;6297654;22;20019;-81
2021/08/24 05:03:01;;;;;;;3.63;2.35;;;;;;;12.62;85.51;101321.50;6297838;22;20038;-80
2021/08/24 05:05:29;;;;;;;3.80;2.20;;;;;;;12.63;85.37;101323.25;6298333;22;20016;-80
2021/08/24 05:07:56;;;;;;;3.78;2.20;;;;;;;12.64;85.44;101332.94;6292103;22;20134;-82
2021/08/24 05:10:23;;;;;;;3.08;1.80;;;;;;;12.64;85.22;101323.19;6280661;22;20076;-82
2021/08/24 05:12:53;;;;;;;4.35;2.40;;;;;;;12.64;85.19;101322.31;6277545;22;20027;-82
2021/08/24 05:15:20;;;;;;;5.93;2.40;;;;;;;12.67;85.11;101318.66;6280633;22;20102;-82
2021/08/24 05:17:50;;;;;;;2.33;1.88;;;;;;;12.78;84.11;101327.06;6280473;22;20023;-81
2021/08/24 05:20:19;;;;;;;5.45;2.30;;;;;;;12.82;83.84;101324.22;6282643;22;20018;-81
2021/08/24 05:22:47;;;;;;;5.13;2.30;;;;;;;12.80;83.76;101319.91;6283539;22;20090;-83
2021/08/24 05:25:18;;;;;;;3.53;2.00;;;;;;;12.87;83.16;101319.59;6284099;22;20075;-81
2021/08/24 05:27:45;;;;;;;4.40;2.40;;;;;;;12.90;83.52;101314.16;6280785;22;20102;-80
2021/08/24 05:30:15;;;;;;;4.88;2.20;;;;;;;12.93;83.87;101321.97;6279762;22;20167;-80
2021/08/24 05:32:44;;;;;;;5.57;2.60;;;;;;;12.98;84.01;101320.00;6279555;22;20020;-81
2021/08/24 05:35:12;;;;;;;4.53;2.38;;;;;;;13.04;83.77;101318.00;6278438;22;20413;-81
2021/08/24 05:37:42;;;;;;;4.72;2.45;;;;;;;13.10;83.85;101320.41;6279530;22;20020;-81
2021/08/24 05:40:10;;;;;;;6.47;2.13;;;;;;;13.14;83.25;101327.31;6284317;22;20031;-82
2021/08/24 05:42:37;;;;;;;4.25;2.10;;;;;;;13.17;83.16;101333.41;6287429;22;20072;-80
2021/08/24 05:45:08;;;;;;;4.40;2.30;;;;;;;13.21;82.36;101336.81;6295161;22;20102;-83
2021/08/24 05:47:36;;;;;;;3.88;2.00;;;;;;;13.25;82.24;101338.38;6297775;22;20012;-83
2021/08/24 05:50:04;;;;;;;4.28;2.15;;;;;;;13.32;81.00;101331.88;6295060;22;20099;-84
2021/08/24 05:52:52;;;;;;;6.05;2.28;;;;;;;13.33;81.13;101328.28;6294230;22;20188;-84
2021/08/24 05:55:19;;;;;;;5.68;2.20;;;;;;;13.38;81.56;101339.59;6294344;22;20079;-81
2021/08/24 05:58:10;;;;;;;3.60;1.80;;;;;;;13.42;80.74;101327.88;6280470;22;20050;-83
2021/08/24 06:00:38;;;;;;;4.65;2.08;;;;;;;13.49;80.22;101342.66;6290568;22;20103;-82
2021/08/24 06:03:07;;;;;;;3.97;2.10;;;;;;;13.58;79.49;101334.25;6291510;22;20019;-83
2021/08/24 06:05:39;;;;;;;3.00;2.05;;;;;;;13.61;79.77;101334.13;6295237;22;20012;-82
2021/08/24 06:08:07;;;;;;;4.55;1.65;;;;;;;13.69;79.55;101336.47;6294994;22;20034;-82
2021/08/24 06:10:39;;;;;;;3.10;2.03;;;;;;;13.77;79.23;101336.09;6284742;22;20016;-83
2021/08/24 06:13:07;;;;;;;3.92;1.95;;;;;;;13.83;79.22;101343.81;6279648;22;20081;-82
2021/08/24 06:15:37;;;;;;;4.38;1.90;;;;;;;13.89;78.89;101344.38;6280912;22;20402;-81
2021/08/24 06:18:05;;;;;;;3.28;2.00;;;;;;;13.96;77.99;101340.53;6278763;22;20026;-81
2021/08/24 06:20:32;;;;;;;3.42;1.98;;;;;;;14.07;77.93;101348.00;6280020;22;20102;-81
2021/08/24 06:22:59;;;;;;;3.92;1.92;;;;;;;14.17;76.90;101335.13;6279870;22;20094;-82
2021/08/24 06:25:26;;;;;;;4.63;1.80;;;;;;;14.22;76.84;101341.97;6279319;22;20213;-83
2021/08/24 06:27:53;;;;;;;2.80;1.67;;;;;;;14.35;76.94;101345.78;6301855;22;20022;-83
2021/08/24 06:30:20;;;;;;;4.47;2.08;;;;;;;14.49;76.67;101349.59;6277988;22;20024;-82
2021/08/24 06:32:52;;;;;;;5.63;2.30;;;;;;;14.61;76.37;101341.03;6276248;22;20449;-82
2021/08/24 06:35:21;;;;;;;3.03;1.90;;;;;;;14.77;76.09;101344.69;6276420;22;20024;-82
2021/08/24 06:37:53;;;;;;;3.55;1.55;;;;;;;15.01;75.34;101345.25;6274635;22;20024;-82
2021/08/24 06:40:20;;;;;;;5.15;2.13;;;;;;;15.24;74.74;101338.75;6275393;22;20016;-82
2021/08/24 06:42:51;;;;;;;3.50;2.05;;;;;;;15.57;73.06;101331.72;6276440;22;20012;-82
2021/08/24 06:45:26;;;;;;;2.83;1.80;;;;;;;15.94;72.20;101340.41;6278833;22;20090;-81
2021/08/24 06:47:53;;;;;;;4.57;1.83;;;;;;;16.27;70.45;101343.91;6276069;22;20071;-81
2021/08/24 06:50:22;;;;;;;2.63;1.80;;;;;;;16.62;68.54;101338.38;6275773;22;20078;-82
2021/08/24 06:52:50;;;;;;;3.13;1.70;;;;;;;16.80;66.84;101332.00;6278964;22;20302;-80
2021/08/24 06:55:17;;;;;;;2.17;1.60;;;;;;;16.95;66.51;101341.81;6275734;22;20111;-81
2021/08/24 06:57:45;;;;;;;3.05;1.85;;;;;;;17.11;64.40;101339.09;6273574;22;20023;-82
2021/08/24 07:00:18;;;;;;;4.18;1.80;;;;;;;17.13;64.44;101347.91;6275151;22;20016;-83
2021/08/24 07:02:46;;;;;;;2.78;1.60;;;;;;;17.22;64.64;101349.16;6273967;22;20826;-81
2021/08/24 07:05:15;;;;;;;4.03;1.80;;;;;;;17.34;64.39;101348.44;6279263;22;20027;-81
2021/08/24 07:07:42;;;;;;;3.45;1.80;;;;;;;17.33;63.61;101346.69;6280111;22;20271;-82
2021/08/24 07:10:10;;;;;;;2.88;1.67;;;;;;;17.35;63.73;101344.78;6283342;22;20031;-81
2021/08/24 07:12:38;;;;;;;4.00;1.60;;;;;;;17.51;62.87;101354.50;6279921;22;20024;-82
2021/08/24 07:15:07;;;;;;;3.17;1.70;;;;;;;17.39;62.88;101349.88;6276063;22;20020;-82
2021/08/24 07:17:35;;;;;;;4.38;1.63;;;;;;;17.41;63.58;101355.16;6278390;22;20086;-82
2021/08/24 07:20:03;;;;;;;3.65;1.95;;;;;;;17.48;63.28;101367.19;6285167;22;20023;-82
2021/08/24 07:22:36;;;;;;;3.58;1.70;;;;;;;17.49;63.36;101358.22;6280913;22;20032;-83
2021/08/24 07:25:09;;;;;;;3.20;1.83;;;;;;;17.36;62.45;101351.88;6282277;22;20075;-81
2021/08/24 07:27:39;;;;;;;3.72;1.83;;;;;;;17.42;63.38;101367.59;6281764;22;20028;-82
2021/08/24 07:30:07;;;;;;;4.50;1.85;;;;;;;17.58;64.25;101367.53;6284625;22;20027;-82
2021/08/24 07:32:35;;;;;;;2.80;1.90;;;;;;;17.74;62.77;101368.34;6304612;22;20344;-82
2021/08/24 07:35:04;;;;;;;5.53;2.30;;;;;;;17.56;61.65;101377.47;6290184;22;20000;-81
2021/08/24 07:37:31;;;;;;;5.57;2.13;;;;;;;17.36;63.15;101382.19;6288987;22;20127;-85
2021/08/24 07:39:58;;;;;;;5.13;2.00;;;;;;;17.24;63.59;101379.38;6267410;22;20023;-85
2021/08/24 07:42:26;;;;;;;4.60;1.88;;;;;;;17.16;63.16;101378.00;6288619;22;20103;-82
2021/08/24 07:44:54;;;;;;;4.38;2.10;;;;;;;17.10;63.51;101380.19;6287746;22;20043;-81
2021/08/24 07:47:21;;;;;;;2.85;1.92;;;;;;;17.07;63.89;101378.56;6287714;22;20020;-83
2021/08/24 07:49:48;;;;;;;6.25;1.80;;;;;;;17.18;65.53;101381.47;6282741;22;20023;-81
2021/08/24 07:52:14;;;;;;;6.50;1.90;;;;;;;17.33;63.49;101378.81;6287296;22;20043;-81
2021/08/24 07:54:41;;;;;;;2.80;1.80;;;;;;;17.41;63.38;101379.25;6292543;22;20107;-81
2021/08/24 07:57:08;;;;;;;4.20;2.53;;;;;;;17.48;62.55;101372.56;6289996;22;20096;-82
2021/08/24 07:59:35;;;;;;;3.05;1.60;;;;;;;17.50;63.58;101378.69;6293740;22;20047;-81
2021/08/24 08:02:03;;;;;;;7.28;2.10;;;;;;;17.68;63.64;101369.56;6296803;22;20039;-80
2021/08/24 08:04:30;;;;;;;4.95;2.30;;;;;;;17.71;61.27;101380.09;6297079;22;20356;-81
2021/08/24 08:06:58;;;;;;;4.53;2.08;;;;;;;17.55;61.85;101379.28;6298614;22;20028;-80
2021/08/24 08:09:25;;;;;;;2.33;1.80;;;;;;;17.48;62.09;101375.22;6293772;22;20043;-81
2021/08/24 08:11:54;;;;;;;5.32;2.10;;;;;;;17.51;61.12;101375.06;6291414;22;20094;-80
2021/08/24 08:14:20;;;;;;;3.85;1.98;;;;;;;17.55;62.50;101373.91;6295358;22;20055;-80
2021/08/24 08:16:47;;;;;;;3.50;2.08;;;;;;;17.61;63.25;101370.03;6291569;22;20027;-80
2021/08/24 08:19:14;;;;;;;4.03;1.90;;;;;;;17.74;63.34;101371.88;6291618;22;20099;-81
2021/08/24 08:21:43;;;;;;;5.03;2.03;;;;;;;17.73;60.91;101371.97;6290686;22;20087;-79
2021/08/24 08:24:10;;;;;;;5.20;1.90;;;;;;;17.65;60.11;101366.22;6289948;22;20032;-80
2021/08/24 08:26:38;;;;;;;2.95;1.88;;;;;;;17.65;60.60;101377.78;6286612;22;20024;-82
2021/08/24 08:29:09;;;;;;;3.78;1.63;;;;;;;17.73;59.86;101382.69;6289267;22;20059;-81
2021/08/24 08:31:40;;;;;;;4.97;2.10;;;;;;;17.83;61.12;101375.81;6285037;22;20012;-82
2021/08/24 08:34:07;;;;;;;3.90;1.90;;;;;;;17.88;60.01;101374.56;6286872;22;20028;-82
2021/08/24 08:36:35;;;;;;;2.55;1.40;;;;;;;17.84;60.37;101381.06;6284619;22;20550;-81
2021/08/24 08:39:02;;;;;;;2.13;1.60;;;;;;;17.94;61.75;101384.06;6287177;22;20046;-79
2021/08/24 08:41:54;;;;;;;3.47;1.75;;;;;;;18.01;60.66;101384.53;6294192;22;20035;-79
2021/08/24 08:44:24;;;;;;;5.15;1.90;;;;;;;18.11;60.49;101386.53;6299455;22;20020;-79
2021/08/24 08:47:09;;;;;;;4.70;2.00;;;;;;;17.95;60.17;101376.84;6298471;22;20024;-82
2021/08/24 08:50:38;;;;;;;4.65;1.92;;;;;;;17.84;60.45;101377.53;6299179;22;20016;-80
2021/08/24 08:53:09;;;;;;;4.18;2.13;;;;;;;17.65;61.28;101371.56;6181217;23;20005;-80
2021/08/24 08:55:50;;;;;;;4.68;1.92;;;;;;;17.67;62.15;101373.19;6282673;22;20004;-80
2021/08/24 08:58:52;;;;;;;4.10;1.88;;;;;;;17.80;62.11;101362.59;6291962;22;20094;-81
2021/08/24 09:01:48;;;;;;;4.03;2.08;;;;;;;17.72;61.39;101372.94;6283605;22;20449;-82
2021/08/24 09:04:55;;;;;;;5.20;2.30;;;;;;;17.53;61.95;101362.44;6280208;22;20079;-80
2021/08/24 09:07:25;;;;;;;3.15;1.80;;;;;;;17.52;62.42;101374.97;6282118;22;20067;-81
2021/08/24 09:09:52;;;;;;;4.93;2.10;;;;;;;17.53;63.16;101360.63;6280684;22;20020;-82
2021/08/24 09:12:21;;;;;;;8.00;2.00;;;;;;;17.64;62.94;101373.38;6282214;22;20331;-82
2021/08/24 09:14:51;;;;;;;4.18;2.20;;;;;;;17.62;63.36;101369.06;6280881;22;20403;-81
2021/08/24 09:17:27;;;;;;;4.32;2.00;;;;;;;17.56;63.66;101359.56;6279658;22;20107;-84
2021/08/24 09:20:20;;;;;;;3.90;1.90;;;;;;;17.70;63.42;101366.81;6277020;22;20016;-82
2021/08/24 09:22:49;;;;;;;3.38;1.98;;;;;;;17.77;64.49;101368.16;6279674;22;20115;-83
2021/08/24 09:25:34;;;;;;;7.60;2.25;;;;;;;17.81;63.94;101361.63;6279660;22;20039;-82
2021/08/24 09:28:15;;;;;;;4.28;2.33;;;;;;;17.79;63.30;101367.09;6282295;22;20052;-81
2021/08/24 09:30:44;;;;;;;3.42;1.77;;;;;;;17.92;63.95;101364.53;6278635;22;20609;-82
2021/08/24 09:33:14;;;;;;;4.20;2.28;;;;;;;18.01;63.15;101365.75;6280007;22;20030;-81
2021/08/24 09:35:55;;;;;;;3.75;1.92;;;;;;;18.11;64.37;101366.91;6283567;22;20058;-80
2021/08/24 09:38:32;;;;;;;6.07;2.00;;;;;;;18.32;63.51;101373.59;6281509;22;20054;-80
2021/08/24 09:41:17;;;;;;;6.60;2.45;;;;;;;18.55;63.07;101364.94;6279935;22;20065;-81
2021/08/24 09:43:47;;;;;;;4.25;2.25;;;;;;;18.48;62.92;101370.78;6277062;22;20519;-81
2021/08/24 09:46:20;;;;;;;4.90;2.00;;;;;;;18.44;62.87;101369.25;6278293;22;20020;-81
2021/08/24 09:49:05;;;;;;;5.03;2.22;;;;;;;18.34;62.52;101374.38;6279438;22;20078;-80
2021/08/24 09:52:05;;;;;;;3.75;1.90;;;;;;;18.31;63.62;101377.22;6283224;22;20103;-81
2021/08/24 09:54:49;;;;;;;4.18;2.20;;;;;;;18.41;63.65;101373.03;6280962;22;20058;-81
2021/08/24 09:57:37;;;;;;;3.45;1.85;;;;;;;18.63;63.30;101371.66;6288075;22;20058;-79
2021/08/24 10:00:27;;;;;;;4.38;2.20;;;;;;;18.79;63.00;101358.97;6286976;22;20118;-81
2021/08/24 10:02:58;;;;;;;3.20;2.05;;;;;;;18.74;61.42;101366.44;6282304;22;20349;-82
2021/08/24 10:05:43;;;;;;;2.80;1.92;;;;;;;18.54;62.11;101360.53;6282147;22;20020;-81
2021/08/24 10:09:05;;;;;;;4.70;2.28;;;;;;;18.49;62.53;101365.34;6283271;22;20074;-82
2021/08/24 10:11:33;;;;;;;4.68;2.42;;;;;;;18.48;62.77;101370.78;6241664;22;20052;-82
2021/08/24 10:14:20;;;;;;;5.35;2.30;;;;;;;18.54;63.38;101363.22;6249565;22;20356;-79
2021/08/24 10:16:50;;;;;;;3.97;2.45;;;;;;;18.51;62.50;101365.25;6252807;22;20563;-80
2021/08/24 10:19:19;;;;;;;5.90;2.37;;;;;;;18.45;62.87;101357.56;6253044;22;20020;-82
2021/08/24 10:22:05;;;;;;;5.57;3.00;;;;;;;18.52;62.27;101345.50;6257997;22;20514;-81
2021/08/24 10:24:37;;;;;;;3.05;2.28;;;;;;;18.46;63.12;101345.88;6252772;22;20017;-81
2021/08/24 10:27:08;;;;;;;3.53;2.30;;;;;;;18.44;63.77;101348.66;6252214;22;20119;-81
2021/08/24 10:29:39;;;;;;;5.25;2.53;;;;;;;18.43;63.73;101325.50;6248037;22;20021;-80
2021/08/24 10:32:10;;;;;;;4.18;2.75;;;;;;;18.69;63.57;101342.63;6247187;22;20028;-80
2021/08/24 10:34:42;;;;;;;3.90;3.00;;;;;;;18.80;62.99;101342.75;6247483;22;20017;-81
2021/08/24 10:37:25;;;;;;;4.30;2.50;;;;;;;18.76;63.33;101333.19;6248245;22;20058;-80
2021/08/24 10:40:14;;;;;;;5.72;2.85;;;;;;;18.54;63.58;101325.66;6246581;23;20188;-80
2021/08/24 10:43:02;;;;;;;3.22;2.40;;;;;;;18.50;64.13;101334.88;6257632;22;20087;-80
2021/08/24 10:45:36;;;;;;;6.75;2.53;;;;;;;18.57;63.76;101333.50;6255952;22;20087;-79
2021/08/24 10:48:07;;;;;;;3.97;2.38;;;;;;;18.82;62.86;101329.25;6257631;22;20099;-78
2021/08/24 10:51:00;;;;;;;3.08;2.33;;;;;;;19.04;62.38;101331.38;6260128;22;20099;-79
2021/08/24 10:54:12;;;;;;;4.88;2.70;;;;;;;19.18;61.77;101336.66;6258762;22;20123;-80
2021/08/24 10:56:53;;;;;;;3.65;2.40;;;;;;;19.33;61.90;101338.28;6260839;22;20095;-81
2021/08/24 10:59:35;;;;;;;3.28;2.38;;;;;;;19.67;60.55;101338.69;6259371;22;20044;-79
2021/08/24 11:02:42;;;;;;;3.47;2.42;;;;;;;19.81;59.57;101343.94;6250907;22;20070;-80
2021/08/24 11:05:21;;;;;;;4.95;2.58;;;;;;;19.96;59.06;101342.84;6200415;22;20044;-80
2021/08/24 11:08:09;;;;;;;4.18;2.30;;;;;;;20.20;59.67;101335.72;6245067;22;20127;-80
2021/08/24 11:10:50;;;;;;;4.38;2.78;;;;;;;20.36;58.39;101340.88;6249281;22;20047;-80
2021/08/24 11:13:43;;;;;;;4.55;2.50;;;;;;;20.16;58.93;101336.03;6248465;22;20023;-81
2021/08/24 11:16:38;;;;;;;2.80;2.33;;;;;;;20.09;59.12;101341.00;6251415;22;20027;-80
2021/08/24 11:19:25;;;;;;;7.25;2.72;;;;;;;20.14;60.10;101352.31;6250638;22;20078;-81
2021/08/24 11:22:13;;;;;;;3.65;2.50;;;;;;;20.19;59.45;101346.56;6248363;22;20787;-80
2021/08/24 11:24:53;;;;;;;4.18;2.60;;;;;;;20.26;59.64;101345.16;6249597;22;20016;-81
2021/08/24 11:27:49;;;;;;;4.40;2.67;;;;;;;20.40;59.01;101347.75;6249153;22;20050;-81
2021/08/24 11:30:30;;;;;;;3.63;2.58;;;;;;;20.18;58.96;101337.63;6249625;22;20023;-82
2021/08/24 11:33:00;;;;;;;;;;;;;;;20.17;59.28;101341.28;6249840;22;20110;-82
2021/08/24 11:36:08;;;;;;;4.70;2.50;;;;;;;20.08;59.67;101343.81;6250713;22;19983;-81
2021/08/24 11:38:41;;;;;;;3.45;2.63;;;;;;;19.89;60.93;101352.31;6219275;22;20034;-81
2021/08/24 11:41:18;;;;;;;9.38;4.53;;;;;;;19.77;60.51;101362.09;6248073;22;20788;-81
2021/08/24 11:43:47;;;;;;;3.72;2.78;;;;;;;19.85;61.14;101361.56;6250601;22;20103;-81
2021/08/24 11:46:45;;;;;;;3.80;2.72;;;;;;;19.90;60.22;101362.97;6251980;22;20058;-81
2021/08/24 11:49:21;;;;;;;5.15;3.03;;;;;;;20.06;60.52;101367.25;6252379;22;20026;-81
2021/08/24 11:52:03;;;;;;;5.45;2.90;;;;;;;20.14;60.15;101370.25;6249137;22;20110;-82
2021/08/24 11:54:42;;;;;;;4.75;3.30;;;;;;;20.18;59.56;101369.06;6253060;22;20031;-81